Darstellungsparameter: Aktuell verwendete Einstellungen:
Skalierung der Graphiken ... ?
xyx+y,   Skalierungsfaktor:      Skalierung: Modus: x, Faktor: 1
Darstellungszeitraum ... ?
Vom - - bis: - -   Zeitraum: 17.11.2021 - 17.11.2021
Min/Max/Avg-Anzeige ... ?
Zeige MMA aktuell
Zeige MMA Monat
Zeige MMA alles
Zeige --A aktuell
Zeige --A Monat
Zeige --A alles
Keine MMA-Anzeige
MMA:
Average (ber die Originaldaten)
MMA-Basis: 17.11.2021 - 17.11.2021
Quicknavigation für Darstellung... ?
Tage:      1T, 2T, 3T, 5T -1T -2T -3T -5T +1T +2T +3T +5T
Wochen: 1W, 2W, 3W -1W -2W -3W +1W +2W +3W
Monate: 1M, 3M, 6M -1M -3M -6M +1M +3M +6M
Jahre:    1J, 3J, 5J, 10J -1J -3J -5J -10J +1J +3J +5J +10J
Nutze für die Darstellung ... ?
Originaldaten oder Mittelwerte auf ...
Stundenbasis Tagesbasis Wochenbasis
Monatsbasis Jahresbasis      Datenbasis: Original-Daten
Darstellen als:
Statistik (Auto) Statistik J:M      Darstellung:
Zur Graphik,    zurück zur Übersicht aller Sensoren.
 
Tabellarische Datenbersicht: ?
 
Sensor: Nr:Datum:Temp:Abs-Feuchte:Windchill:Wind:
Aussen-T/F 1 17-11-2021 00:00:00 5.4 C 6.7 g/m*3 5.4 C 0 km/h
2 17-11-2021 00:05:00 5.4 C 6.7 g/m*3 5.4 C 0 km/h
3 17-11-2021 00:10:00 5.4 C 6.7 g/m*3 5.4 C 0 km/h
4 17-11-2021 00:15:00 5.4 C 6.7 g/m*3 5.4 C 0 km/h
5 17-11-2021 00:20:00 5.4 C 6.7 g/m*3 5.4 C 0 km/h
6 17-11-2021 00:25:00 5.4 C 6.7 g/m*3 5.4 C 0 km/h
7 17-11-2021 00:30:00 5.4 C 6.7 g/m*3 5.4 C 0 km/h
8 17-11-2021 00:35:00 5.4 C 6.7 g/m*3 5.4 C 0 km/h
9 17-11-2021 00:40:00 5.4 C 6.7 g/m*3 5.4 C 0 km/h
10 17-11-2021 00:45:00 5.4 C 6.7 g/m*3 5.4 C 0 km/h
11 17-11-2021 00:50:00 5.4 C 6.7 g/m*3 5.4 C 0 km/h
12 17-11-2021 00:55:00 5.4 C 6.7 g/m*3 5.4 C 0 km/h
13 17-11-2021 01:00:00 5.4 C 6.7 g/m*3 5.4 C 0 km/h
14 17-11-2021 01:05:00 5.4 C 6.7 g/m*3 5.4 C 0 km/h
15 17-11-2021 01:10:00 5.4 C 6.7 g/m*3 5.4 C 0 km/h
16 17-11-2021 01:15:00 5.4 C 6.7 g/m*3 5.4 C 0 km/h
17 17-11-2021 01:20:00 5.4 C 6.7 g/m*3 5.4 C 0 km/h
18 17-11-2021 01:25:00 5.4 C 6.7 g/m*3 5.4 C 0 km/h
19 17-11-2021 01:30:00 5.4 C 6.7 g/m*3 5.4 C 0 km/h
20 17-11-2021 01:35:00 5.4 C 6.7 g/m*3 5.4 C 0 km/h
21 17-11-2021 01:40:00 5.4 C 6.7 g/m*3 5.4 C 0 km/h
22 17-11-2021 01:45:00 5.4 C 6.7 g/m*3 5.4 C 0 km/h
23 17-11-2021 01:50:00 5.4 C 6.7 g/m*3 5.4 C 0 km/h
24 17-11-2021 01:55:00 5.4 C 6.7 g/m*3 5.4 C 0 km/h
25 17-11-2021 02:00:00 5.4 C 6.7 g/m*3 5.4 C 0 km/h
Sensor: Nr:Datum:Temp:Abs-Feuchte:Windchill:Wind:
Aussen-T/F 26 17-11-2021 02:05:00 5.4 C 6.7 g/m*3 5.4 C 0 km/h
27 17-11-2021 02:10:00 5.4 C 6.77 g/m*3 5.4 C 0 km/h
28 17-11-2021 02:15:00 5.4 C 6.77 g/m*3 5.4 C 4.8 km/h
29 17-11-2021 02:20:00 5.4 C 6.77 g/m*3 5.4 C 0 km/h
30 17-11-2021 02:25:00 5.4 C 6.77 g/m*3 5.4 C 0 km/h
31 17-11-2021 02:30:00 5.4 C 6.77 g/m*3 5.4 C 0 km/h
32 17-11-2021 02:35:00 5.4 C 6.7 g/m*3 5.4 C 0 km/h
33 17-11-2021 02:40:00 5.4 C 6.7 g/m*3 5.4 C 0 km/h
34 17-11-2021 02:45:00 5.4 C 6.7 g/m*3 5.4 C 0 km/h
35 17-11-2021 02:50:00 5.3 C 6.65 g/m*3 5.3 C 0 km/h
36 17-11-2021 02:55:00 5.3 C 6.65 g/m*3 5.3 C 0 km/h
37 17-11-2021 03:00:00 5.3 C 6.65 g/m*3 5.3 C 0 km/h
38 17-11-2021 03:05:00 5.3 C 6.65 g/m*3 5.3 C 0 km/h
39 17-11-2021 03:10:00 5.3 C 6.65 g/m*3 5.3 C 0 km/h
40 17-11-2021 03:15:00 5.3 C 6.65 g/m*3 5.3 C 1.6 km/h
41 17-11-2021 03:20:00 5.3 C 6.65 g/m*3 5.3 C 1.6 km/h
42 17-11-2021 03:25:00 5.3 C 6.65 g/m*3 5.3 C 0 km/h
43 17-11-2021 03:30:00 5.3 C 6.65 g/m*3 5.3 C 3.2 km/h
44 17-11-2021 03:35:00 5.3 C 6.65 g/m*3 5.3 C 0 km/h
45 17-11-2021 03:40:00 5.2 C 6.61 g/m*3 5.2 C 0 km/h
46 17-11-2021 03:45:00 5.2 C 6.61 g/m*3 5.2 C 0 km/h
47 17-11-2021 03:50:00 5.2 C 6.61 g/m*3 5.2 C 0 km/h
48 17-11-2021 03:55:00 5.2 C 6.61 g/m*3 5.2 C 0 km/h
49 17-11-2021 04:00:00 5.1 C 6.57 g/m*3 5.1 C 3.2 km/h
50 17-11-2021 04:05:00 5.1 C 6.57 g/m*3 3.71 C 6.4 km/h
Sensor: Nr:Datum:Temp:Abs-Feuchte:Windchill:Wind:
Aussen-T/F 51 17-11-2021 04:10:00 5 C 6.52 g/m*3 5 C 1.6 km/h
52 17-11-2021 04:15:00 5 C 6.52 g/m*3 5 C 3.2 km/h
53 17-11-2021 04:20:00 4.9 C 6.48 g/m*3 4.9 C 0 km/h
54 17-11-2021 04:25:00 4.9 C 6.48 g/m*3 4.9 C 4.8 km/h
55 17-11-2021 04:30:00 4.9 C 6.48 g/m*3 4.9 C 0 km/h
56 17-11-2021 04:35:00 4.9 C 6.48 g/m*3 4.9 C 0 km/h
57 17-11-2021 04:40:00 4.9 C 6.48 g/m*3 4.9 C 4.8 km/h
58 17-11-2021 04:45:00 4.8 C 6.44 g/m*3 4.8 C 3.2 km/h
59 17-11-2021 04:50:00 4.8 C 6.44 g/m*3 4.8 C 0 km/h
60 17-11-2021 04:55:00 4.8 C 6.44 g/m*3 4.8 C 0 km/h
61 17-11-2021 05:00:00 4.8 C 6.44 g/m*3 4.8 C 3.2 km/h
62 17-11-2021 05:05:00 4.8 C 6.44 g/m*3 4.8 C 0 km/h
63 17-11-2021 05:10:00 4.8 C 6.44 g/m*3 4.8 C 0 km/h
64 17-11-2021 05:15:00 4.8 C 6.44 g/m*3 4.8 C 1.6 km/h
65 17-11-2021 05:20:00 4.8 C 6.44 g/m*3 4.8 C 0 km/h
66 17-11-2021 05:25:00 4.8 C 6.44 g/m*3 4.8 C 4.8 km/h
67 17-11-2021 05:30:00 4.8 C 6.44 g/m*3 4.8 C 3.2 km/h
68 17-11-2021 05:35:00 4.8 C 6.44 g/m*3 4.8 C 3.2 km/h
69 17-11-2021 05:40:00 4.8 C 6.44 g/m*3 4.8 C 3.2 km/h
70 17-11-2021 05:45:00 4.8 C 6.44 g/m*3 4.8 C 3.2 km/h
71 17-11-2021 05:50:00 4.8 C 6.44 g/m*3 4.8 C 4.8 km/h
72 17-11-2021 05:55:00 4.8 C 6.44 g/m*3 3.36 C 6.4 km/h
73 17-11-2021 06:00:00 4.8 C 6.44 g/m*3 4.8 C 4.8 km/h
74 17-11-2021 06:05:00 4.8 C 6.44 g/m*3 4.8 C 0 km/h
75 17-11-2021 06:10:00 4.8 C 6.44 g/m*3 4.8 C 3.2 km/h
Sensor: Nr:Datum:Temp:Abs-Feuchte:Windchill:Wind:
Aussen-T/F 76 17-11-2021 06:15:00 4.8 C 6.44 g/m*3 3.36 C 6.4 km/h
77 17-11-2021 06:20:00 4.8 C 6.44 g/m*3 4.8 C 3.2 km/h
78 17-11-2021 06:25:00 4.8 C 6.44 g/m*3 4.8 C 3.2 km/h
79 17-11-2021 06:30:00 4.8 C 6.44 g/m*3 2.87 C 8.1 km/h
80 17-11-2021 06:35:00 4.8 C 6.44 g/m*3 4.8 C 1.6 km/h
81 17-11-2021 06:40:00 4.9 C 6.48 g/m*3 4.9 C 4.8 km/h
82 17-11-2021 06:45:00 4.8 C 6.44 g/m*3 3.36 C 6.4 km/h
83 17-11-2021 06:50:00 4.8 C 6.44 g/m*3 4.8 C 4.8 km/h
84 17-11-2021 06:55:00 4.9 C 6.48 g/m*3 4.9 C 1.6 km/h
85 17-11-2021 07:00:00 4.9 C 6.48 g/m*3 4.9 C 1.6 km/h
86 17-11-2021 07:05:00 4.9 C 6.48 g/m*3 4.9 C 1.6 km/h
87 17-11-2021 07:10:00 4.9 C 6.48 g/m*3 4.9 C 1.6 km/h
88 17-11-2021 07:15:00 4.9 C 6.48 g/m*3 4.9 C 0 km/h
89 17-11-2021 07:20:00 4.9 C 6.48 g/m*3 4.9 C 0 km/h
90 17-11-2021 07:25:00 4.9 C 6.48 g/m*3 4.9 C 3.2 km/h
91 17-11-2021 07:30:00 4.9 C 6.48 g/m*3 4.9 C 3.2 km/h
92 17-11-2021 07:35:00 4.9 C 6.48 g/m*3 4.9 C 3.2 km/h
93 17-11-2021 07:40:00 4.9 C 6.48 g/m*3 4.9 C 1.6 km/h
94 17-11-2021 07:45:00 4.9 C 6.48 g/m*3 4.9 C 1.6 km/h
95 17-11-2021 07:50:00 4.9 C 6.48 g/m*3 4.9 C 3.2 km/h
96 17-11-2021 07:55:00 4.9 C 6.48 g/m*3 4.9 C 4.8 km/h
97 17-11-2021 08:00:00 4.9 C 6.48 g/m*3 4.9 C 1.6 km/h
98 17-11-2021 08:05:00 4.9 C 6.48 g/m*3 4.9 C 4.8 km/h
99 17-11-2021 08:10:00 5 C 6.52 g/m*3 5 C 3.2 km/h
100 17-11-2021 08:15:00 5 C 6.46 g/m*3 5 C 4.8 km/h
Sensor: Nr:Datum:Temp:Abs-Feuchte:Windchill:Wind:
Aussen-T/F 101 17-11-2021 08:20:00 5.1 C 6.5 g/m*3 5.1 C 4.8 km/h
102 17-11-2021 08:25:00 5.1 C 6.5 g/m*3 5.1 C 1.6 km/h
103 17-11-2021 08:30:00 5.1 C 6.57 g/m*3 5.1 C 3.2 km/h
104 17-11-2021 08:35:00 5.1 C 6.57 g/m*3 5.1 C 4.8 km/h
105 17-11-2021 08:40:00 5.2 C 6.61 g/m*3 5.2 C 4.8 km/h
106 17-11-2021 08:45:00 5.2 C 6.54 g/m*3 5.2 C 4.8 km/h
107 17-11-2021 08:50:00 5.2 C 6.54 g/m*3 3.82 C 6.4 km/h
108 17-11-2021 08:55:00 5.3 C 6.58 g/m*3 3.94 C 6.4 km/h
109 17-11-2021 09:00:00 5.3 C 6.58 g/m*3 5.3 C 1.6 km/h
110 17-11-2021 09:05:00 5.3 C 6.58 g/m*3 5.3 C 1.6 km/h
111 17-11-2021 09:10:00 5.4 C 6.7 g/m*3 5.4 C 0 km/h
112 17-11-2021 09:15:00 5.4 C 6.63 g/m*3 4.06 C 6.4 km/h
113 17-11-2021 09:20:00 5.5 C 6.67 g/m*3 5.5 C 4.8 km/h
114 17-11-2021 09:25:00 5.6 C 6.72 g/m*3 5.6 C 3.2 km/h
115 17-11-2021 09:30:00 5.6 C 6.72 g/m*3 5.6 C 4.8 km/h
116 17-11-2021 09:35:00 5.7 C 6.76 g/m*3 5.7 C 1.6 km/h
117 17-11-2021 09:40:00 5.7 C 6.76 g/m*3 5.7 C 1.6 km/h
118 17-11-2021 09:45:00 5.8 C 6.81 g/m*3 5.8 C 3.2 km/h
119 17-11-2021 09:50:00 5.9 C 6.85 g/m*3 5.9 C 4.8 km/h
120 17-11-2021 09:55:00 6 C 6.9 g/m*3 6 C 3.2 km/h
121 17-11-2021 10:00:00 6.1 C 6.94 g/m*3 6.1 C 4.8 km/h
122 17-11-2021 10:05:00 6.1 C 6.94 g/m*3 6.1 C 4.8 km/h
123 17-11-2021 10:10:00 6.2 C 6.91 g/m*3 6.2 C 4.8 km/h
124 17-11-2021 10:15:00 6.2 C 6.91 g/m*3 4.98 C 6.4 km/h
125 17-11-2021 10:20:00 6.3 C 6.96 g/m*3 4.64 C 8.1 km/h
Sensor: Nr:Datum:Temp:Abs-Feuchte:Windchill:Wind:
Aussen-T/F 126 17-11-2021 10:25:00 6.4 C 7 g/m*3 6.4 C 4.8 km/h
127 17-11-2021 10:30:00 6.5 C 6.97 g/m*3 4.87 C 8.1 km/h
128 17-11-2021 10:35:00 6.6 C 7.02 g/m*3 4.99 C 8.1 km/h
129 17-11-2021 10:40:00 6.6 C 7.02 g/m*3 4.99 C 8.1 km/h
130 17-11-2021 10:45:00 6.7 C 7.07 g/m*3 5.11 C 8.1 km/h
131 17-11-2021 10:50:00 6.8 C 7.11 g/m*3 6.8 C 4.8 km/h
132 17-11-2021 10:55:00 6.8 C 7.11 g/m*3 5.67 C 6.4 km/h
133 17-11-2021 11:00:00 6.9 C 7.08 g/m*3 5.79 C 6.4 km/h
134 17-11-2021 11:05:00 6.9 C 7.08 g/m*3 5.34 C 8.1 km/h
135 17-11-2021 11:10:00 7.1 C 7.18 g/m*3 7.1 C 3.2 km/h
136 17-11-2021 11:15:00 7.1 C 7.18 g/m*3 5.58 C 8.1 km/h
137 17-11-2021 11:20:00 7.2 C 7.22 g/m*3 5.04 C 11.3 km/h
138 17-11-2021 11:25:00 7.3 C 7.19 g/m*3 5.16 C 11.3 km/h
139 17-11-2021 11:30:00 7.4 C 7.24 g/m*3 7.4 C 4.8 km/h
140 17-11-2021 11:35:00 7.4 C 7.24 g/m*3 5.93 C 8.1 km/h
141 17-11-2021 11:40:00 7.4 C 7.24 g/m*3 5.58 C 9.7 km/h
142 17-11-2021 11:45:00 7.5 C 7.2 g/m*3 6.05 C 8.1 km/h
143 17-11-2021 11:50:00 7.6 C 7.33 g/m*3 6.6 C 6.4 km/h
144 17-11-2021 11:55:00 7.7 C 7.3 g/m*3 6.28 C 8.1 km/h
145 17-11-2021 12:00:00 7.8 C 7.35 g/m*3 6.06 C 9.7 km/h
146 17-11-2021 12:05:00 7.8 C 7.35 g/m*3 6.06 C 9.7 km/h
147 17-11-2021 12:10:00 7.8 C 7.26 g/m*3 6.06 C 9.7 km/h
148 17-11-2021 12:15:00 7.8 C 7.26 g/m*3 6.4 C 8.1 km/h
149 17-11-2021 12:20:00 7.9 C 7.31 g/m*3 6.52 C 8.1 km/h
150 17-11-2021 12:25:00 7.9 C 7.31 g/m*3 6.18 C 9.7 km/h
Sensor: Nr:Datum:Temp:Abs-Feuchte:Windchill:Wind:
Aussen-T/F 151 17-11-2021 12:30:00 7.9 C 7.31 g/m*3 6.18 C 9.7 km/h
152 17-11-2021 12:35:00 7.9 C 7.31 g/m*3 5.89 C 11.3 km/h
153 17-11-2021 12:40:00 7.9 C 7.31 g/m*3 6.18 C 9.7 km/h
154 17-11-2021 12:45:00 7.8 C 7.26 g/m*3 6.06 C 9.7 km/h
155 17-11-2021 12:50:00 7.9 C 7.31 g/m*3 6.94 C 6.4 km/h
156 17-11-2021 12:55:00 7.9 C 7.31 g/m*3 6.52 C 8.1 km/h
157 17-11-2021 13:00:00 7.9 C 7.31 g/m*3 6.52 C 8.1 km/h
158 17-11-2021 13:05:00 7.9 C 7.31 g/m*3 6.52 C 8.1 km/h
159 17-11-2021 13:10:00 7.9 C 7.31 g/m*3 7.9 C 4.8 km/h
160 17-11-2021 13:15:00 7.9 C 7.31 g/m*3 6.94 C 6.4 km/h
161 17-11-2021 13:20:00 7.9 C 7.31 g/m*3 6.18 C 9.7 km/h
162 17-11-2021 13:25:00 7.9 C 7.31 g/m*3 5.63 C 12.9 km/h
163 17-11-2021 13:30:00 7.9 C 7.39 g/m*3 6.52 C 8.1 km/h
164 17-11-2021 13:35:00 7.9 C 7.39 g/m*3 6.52 C 8.1 km/h
165 17-11-2021 13:40:00 7.9 C 7.47 g/m*3 6.94 C 6.4 km/h
166 17-11-2021 13:45:00 7.8 C 7.43 g/m*3 6.83 C 6.4 km/h
167 17-11-2021 13:50:00 7.8 C 7.51 g/m*3 7.8 C 4.8 km/h
168 17-11-2021 13:55:00 7.8 C 7.51 g/m*3 6.83 C 6.4 km/h
169 17-11-2021 14:00:00 7.7 C 7.46 g/m*3 7.7 C 3.2 km/h
170 17-11-2021 14:05:00 7.7 C 7.46 g/m*3 7.7 C 3.2 km/h
171 17-11-2021 14:10:00 7.6 C 7.49 g/m*3 7.6 C 0 km/h
172 17-11-2021 14:15:00 7.6 C 7.49 g/m*3 7.6 C 1.6 km/h
173 17-11-2021 14:20:00 7.6 C 7.49 g/m*3 7.6 C 0 km/h
174 17-11-2021 14:25:00 7.6 C 7.49 g/m*3 7.6 C 3.2 km/h
175 17-11-2021 14:30:00 7.6 C 7.49 g/m*3 7.6 C 1.6 km/h
Sensor: Nr:Datum:Temp:Abs-Feuchte:Windchill:Wind:
Aussen-T/F 176 17-11-2021 14:35:00 7.6 C 7.49 g/m*3 7.6 C 0 km/h
177 17-11-2021 14:40:00 7.6 C 7.49 g/m*3 7.6 C 4.8 km/h
178 17-11-2021 14:45:00 7.5 C 7.44 g/m*3 5.41 C 11.3 km/h
179 17-11-2021 14:50:00 7.5 C 7.44 g/m*3 6.48 C 6.4 km/h
180 17-11-2021 14:55:00 7.5 C 7.44 g/m*3 6.05 C 8.1 km/h
181 17-11-2021 15:00:00 7.5 C 7.44 g/m*3 5.41 C 11.3 km/h
182 17-11-2021 15:05:00 7.5 C 7.44 g/m*3 5.7 C 9.7 km/h
183 17-11-2021 15:10:00 7.5 C 7.44 g/m*3 5.7 C 9.7 km/h
184 17-11-2021 15:15:00 7.6 C 7.49 g/m*3 5.82 C 9.7 km/h
185 17-11-2021 15:20:00 7.6 C 7.49 g/m*3 5.53 C 11.3 km/h
186 17-11-2021 15:25:00 7.6 C 7.49 g/m*3 6.6 C 6.4 km/h
187 17-11-2021 15:30:00 7.7 C 7.54 g/m*3 5.65 C 11.3 km/h
188 17-11-2021 15:35:00 7.7 C 7.54 g/m*3 5.94 C 9.7 km/h
189 17-11-2021 15:40:00 7.7 C 7.54 g/m*3 5.65 C 11.3 km/h
190 17-11-2021 15:45:00 7.8 C 7.59 g/m*3 5.77 C 11.3 km/h
191 17-11-2021 15:50:00 7.8 C 7.51 g/m*3 6.06 C 9.7 km/h
192 17-11-2021 15:55:00 7.8 C 7.51 g/m*3 6.06 C 9.7 km/h
193 17-11-2021 16:00:00 7.9 C 7.56 g/m*3 5.63 C 12.9 km/h
194 17-11-2021 16:05:00 7.9 C 7.56 g/m*3 5.89 C 11.3 km/h
195 17-11-2021 16:10:00 8 C 7.61 g/m*3 6.3 C 9.7 km/h
196 17-11-2021 16:15:00 8 C 7.61 g/m*3 6.64 C 8.1 km/h
197 17-11-2021 16:20:00 8 C 7.61 g/m*3 6.3 C 9.7 km/h
198 17-11-2021 16:25:00 8.1 C 7.66 g/m*3 7.17 C 6.4 km/h
199 17-11-2021 16:30:00 8.1 C 7.66 g/m*3 5.64 C 14.5 km/h
200 17-11-2021 16:35:00 8.1 C 7.66 g/m*3 5.87 C 12.9 km/h
Sensor: Nr:Datum:Temp:Abs-Feuchte:Windchill:Wind:
Aussen-T/F 201 17-11-2021 16:40:00 8.1 C 7.66 g/m*3 5.87 C 12.9 km/h
202 17-11-2021 16:45:00 8.1 C 7.66 g/m*3 6.13 C 11.3 km/h
203 17-11-2021 16:50:00 8.1 C 7.66 g/m*3 6.75 C 8.1 km/h
204 17-11-2021 16:55:00 8.1 C 7.66 g/m*3 6.13 C 11.3 km/h
205 17-11-2021 17:00:00 8 C 7.61 g/m*3 6.3 C 9.7 km/h
206 17-11-2021 17:05:00 8 C 7.61 g/m*3 6.01 C 11.3 km/h
207 17-11-2021 17:10:00 8 C 7.61 g/m*3 5.11 C 17.7 km/h
208 17-11-2021 17:15:00 7.9 C 7.56 g/m*3 6.18 C 9.7 km/h
209 17-11-2021 17:20:00 7.9 C 7.64 g/m*3 6.52 C 8.1 km/h
210 17-11-2021 17:25:00 7.9 C 7.64 g/m*3 5.39 C 14.5 km/h
211 17-11-2021 17:30:00 7.9 C 7.64 g/m*3 5.89 C 11.3 km/h
212 17-11-2021 17:35:00 7.8 C 7.59 g/m*3 5.77 C 11.3 km/h
213 17-11-2021 17:40:00 7.8 C 7.59 g/m*3 6.4 C 8.1 km/h
214 17-11-2021 17:45:00 7.8 C 7.59 g/m*3 5.51 C 12.9 km/h
215 17-11-2021 17:50:00 7.8 C 7.59 g/m*3 6.4 C 8.1 km/h
216 17-11-2021 17:55:00 7.8 C 7.59 g/m*3 5.77 C 11.3 km/h
217 17-11-2021 18:00:00 7.8 C 7.59 g/m*3 5.77 C 11.3 km/h
218 17-11-2021 18:05:00 7.9 C 7.64 g/m*3 5.89 C 11.3 km/h
219 17-11-2021 18:10:00 7.9 C 7.64 g/m*3 5.63 C 12.9 km/h
220 17-11-2021 18:15:00 7.9 C 7.64 g/m*3 5.89 C 11.3 km/h
221 17-11-2021 18:20:00 8 C 7.69 g/m*3 6.64 C 8.1 km/h
222 17-11-2021 18:25:00 8 C 7.69 g/m*3 5.75 C 12.9 km/h
223 17-11-2021 18:30:00 8.1 C 7.74 g/m*3 6.13 C 11.3 km/h
224 17-11-2021 18:35:00 8.1 C 7.74 g/m*3 5.87 C 12.9 km/h
225 17-11-2021 18:40:00 8.1 C 7.74 g/m*3 6.13 C 11.3 km/h
Sensor: Nr:Datum:Temp:Abs-Feuchte:Windchill:Wind:
Aussen-T/F 226 17-11-2021 18:45:00 8.1 C 7.74 g/m*3 5.87 C 12.9 km/h
227 17-11-2021 18:50:00 8.1 C 7.82 g/m*3 6.75 C 8.1 km/h
228 17-11-2021 18:55:00 8.1 C 7.82 g/m*3 5.87 C 12.9 km/h
229 17-11-2021 19:00:00 8 C 7.77 g/m*3 6.3 C 9.7 km/h
230 17-11-2021 19:05:00 8 C 7.77 g/m*3 6.64 C 8.1 km/h
231 17-11-2021 19:10:00 8 C 7.77 g/m*3 6.64 C 8.1 km/h
232 17-11-2021 19:15:00 8 C 7.77 g/m*3 6.64 C 8.1 km/h
233 17-11-2021 19:20:00 8 C 7.77 g/m*3 6.3 C 9.7 km/h
234 17-11-2021 19:25:00 8 C 7.77 g/m*3 5.75 C 12.9 km/h
235 17-11-2021 19:30:00 8 C 7.77 g/m*3 6.01 C 11.3 km/h
236 17-11-2021 19:35:00 8 C 7.77 g/m*3 5.52 C 14.5 km/h
237 17-11-2021 19:40:00 8 C 7.77 g/m*3 6.3 C 9.7 km/h
238 17-11-2021 19:45:00 7.9 C 7.64 g/m*3 6.18 C 9.7 km/h
239 17-11-2021 19:50:00 7.9 C 7.64 g/m*3 6.94 C 6.4 km/h
240 17-11-2021 19:55:00 7.8 C 7.59 g/m*3 6.4 C 8.1 km/h
241 17-11-2021 20:00:00 7.8 C 7.59 g/m*3 6.4 C 8.1 km/h
242 17-11-2021 20:05:00 7.7 C 7.62 g/m*3 6.71 C 6.4 km/h
243 17-11-2021 20:10:00 7.7 C 7.62 g/m*3 6.28 C 8.1 km/h
244 17-11-2021 20:15:00 7.7 C 7.62 g/m*3 6.28 C 8.1 km/h
245 17-11-2021 20:20:00 7.7 C 7.62 g/m*3 7.7 C 4.8 km/h
246 17-11-2021 20:25:00 7.6 C 7.49 g/m*3 6.6 C 6.4 km/h
247 17-11-2021 20:30:00 7.4 C 7.4 g/m*3 7.4 C 4.8 km/h
248 17-11-2021 20:35:00 7.3 C 7.43 g/m*3 5.81 C 8.1 km/h
249 17-11-2021 20:40:00 7.4 C 7.48 g/m*3 7.4 C 3.2 km/h
250 17-11-2021 20:45:00 7.3 C 7.43 g/m*3 5.47 C 9.7 km/h
Sensor: Nr:Datum:Temp:Abs-Feuchte:Windchill:Wind:
Aussen-T/F 251 17-11-2021 20:50:00 7.3 C 7.43 g/m*3 6.25 C 6.4 km/h
252 17-11-2021 20:55:00 7.2 C 7.38 g/m*3 7.2 C 1.6 km/h
253 17-11-2021 21:00:00 6.9 C 7.16 g/m*3 6.9 C 0 km/h
254 17-11-2021 21:05:00 6.8 C 7.11 g/m*3 5.67 C 6.4 km/h
255 17-11-2021 21:10:00 6.7 C 7.14 g/m*3 6.7 C 3.2 km/h
256 17-11-2021 21:15:00 6.7 C 7.14 g/m*3 6.7 C 4.8 km/h
257 17-11-2021 21:20:00 6.7 C 7.14 g/m*3 4.75 C 9.7 km/h
258 17-11-2021 21:25:00 6.7 C 7.22 g/m*3 6.7 C 3.2 km/h
259 17-11-2021 21:30:00 6.7 C 7.22 g/m*3 5.11 C 8.1 km/h
260 17-11-2021 21:35:00 6.7 C 7.22 g/m*3 5.56 C 6.4 km/h
261 17-11-2021 21:40:00 6.7 C 7.22 g/m*3 5.56 C 6.4 km/h
262 17-11-2021 21:45:00 6.7 C 7.22 g/m*3 5.56 C 6.4 km/h
263 17-11-2021 21:50:00 6.6 C 7.17 g/m*3 6.6 C 4.8 km/h
264 17-11-2021 21:55:00 6.4 C 7 g/m*3 6.4 C 1.6 km/h
265 17-11-2021 22:00:00 6.3 C 7.03 g/m*3 6.3 C 1.6 km/h
266 17-11-2021 22:05:00 6.3 C 7.03 g/m*3 6.3 C 3.2 km/h
267 17-11-2021 22:10:00 6.2 C 6.99 g/m*3 6.2 C 3.2 km/h
268 17-11-2021 22:15:00 6.2 C 6.99 g/m*3 4.98 C 6.4 km/h
269 17-11-2021 22:20:00 6.2 C 6.99 g/m*3 6.2 C 4.8 km/h
270 17-11-2021 22:25:00 6.1 C 6.94 g/m*3 6.1 C 0 km/h
271 17-11-2021 22:30:00 6 C 6.9 g/m*3 6 C 0 km/h
272 17-11-2021 22:35:00 5.8 C 6.81 g/m*3 5.8 C 4.8 km/h
273 17-11-2021 22:40:00 5.8 C 6.81 g/m*3 5.8 C 4.8 km/h
274 17-11-2021 22:45:00 5.8 C 6.81 g/m*3 4.05 C 8.1 km/h
275 17-11-2021 22:50:00 5.8 C 6.81 g/m*3 5.8 C 4.8 km/h
Sensor: Nr:Datum:Temp:Abs-Feuchte:Windchill:Wind:
Aussen-T/F 276 17-11-2021 22:55:00 5.8 C 6.81 g/m*3 5.8 C 3.2 km/h
277 17-11-2021 23:00:00 5.7 C 6.76 g/m*3 5.7 C 3.2 km/h
278 17-11-2021 23:05:00 5.6 C 6.72 g/m*3 4.29 C 6.4 km/h
279 17-11-2021 23:10:00 5.5 C 6.67 g/m*3 5.5 C 3.2 km/h
280 17-11-2021 23:15:00 5.4 C 6.63 g/m*3 5.4 C 4.8 km/h
281 17-11-2021 23:20:00 5.3 C 6.58 g/m*3 5.3 C 4.8 km/h
282 17-11-2021 23:25:00 5.1 C 6.5 g/m*3 5.1 C 1.6 km/h
283 17-11-2021 23:30:00 5.1 C 6.5 g/m*3 5.1 C 0 km/h
284 17-11-2021 23:35:00 5 C 6.46 g/m*3 5 C 1.6 km/h
285 17-11-2021 23:40:00 5 C 6.46 g/m*3 5 C 3.2 km/h
286 17-11-2021 23:45:00 4.9 C 6.41 g/m*3 4.9 C 3.2 km/h
287 17-11-2021 23:50:00 5 C 6.52 g/m*3 5 C 3.2 km/h
288 17-11-2021 23:55:00 4.9 C 6.41 g/m*3 4.9 C 0 km/h

Legende:
   Min
   Max


Maximal/Minimal-Werte vom 17.11.2021 - 17.11.2021

Sensor Min Max Avg
Temp
(Aussen-T/F)
4.8 °C
17-11-2021  04:45:00
8.1 °C
17-11-2021  16:25:00
6.4 °C
Abs-Feuchte
(Aussen-T/F)
6.41 g/m*3
17-11-2021  23:45:00
7.82 g/m*3
17-11-2021  18:50:00
7 g/m*3
Windchill
(Aussen-T/F)
2.87 C
17-11-2021  06:30:00
7.9 C
17-11-2021  13:10:00
5.65 C

Die Daten stammen von einer Davis Vantage Pro 2 Wetter-Station und werden unter Linux mit der Software wview2wettercgi und aufbereitet. Alle Angaben erfolgen ohne Gewähr für ihre Vollständigkeit oder Richtigkeit.
Kontakt: Rainer Krienke krienke@uni-koblenz.de . Meine Webseiten an der Uni Koblenz oder privat.
Version: $Revision: 0.78 $